sensor_id;sensor_type;location;lat;lon;timestamp;pressure;altitude;pressure_sealevel;temperature;humidity
23427;BME280;41148;45.420;10.952;2022-07-05T00:00:46;100552.41;;;23.70;68.44
23427;BME280;41148;45.420;10.952;2022-07-05T00:03:15;100553.13;;;23.72;68.19
23427;BME280;41148;45.420;10.952;2022-07-05T00:05:43;100546.25;;;23.68;68.50
23427;BME280;41148;45.420;10.952;2022-07-05T00:08:10;100539.94;;;23.67;68.74
23427;BME280;41148;45.420;10.952;2022-07-05T00:10:37;100538.44;;;23.31;70.61
23427;BME280;41148;45.420;10.952;2022-07-05T00:13:05;100535.69;;;22.88;72.70
23427;BME280;41148;45.420;10.952;2022-07-05T00:15:32;100537.28;;;22.91;73.19
23427;BME280;41148;45.420;10.952;2022-07-05T00:18:00;100529.31;;;23.21;71.48
23427;BME280;41148;45.420;10.952;2022-07-05T00:20:27;100530.13;;;23.33;70.91
23427;BME280;41148;45.420;10.952;2022-07-05T00:22:54;100532.56;;;23.47;70.32
23427;BME280;41148;45.420;10.952;2022-07-05T00:25:21;100530.09;;;23.44;71.20
23427;BME280;41148;45.420;10.952;2022-07-05T00:27:49;100533.50;;;23.68;69.39
23427;BME280;41148;45.420;10.952;2022-07-05T00:30:17;100528.72;;;23.61;69.93
23427;BME280;41148;45.420;10.952;2022-07-05T00:32:44;100532.78;;;23.87;68.43
23427;BME280;41148;45.420;10.952;2022-07-05T00:35:12;100530.31;;;23.52;70.01
23427;BME280;41148;45.420;10.952;2022-07-05T00:37:39;100526.28;;;23.35;71.79
23427;BME280;41148;45.420;10.952;2022-07-05T00:40:06;100532.41;;;23.28;72.09
23427;BME280;41148;45.420;10.952;2022-07-05T00:42:35;100521.28;;;23.52;70.35
23427;BME280;41148;45.420;10.952;2022-07-05T00:45:03;100526.28;;;23.47;70.21
23427;BME280;41148;45.420;10.952;2022-07-05T00:47:30;100519.63;;;23.39;70.57
23427;BME280;41148;45.420;10.952;2022-07-05T00:49:57;100516.09;;;23.28;71.16
23427;BME280;41148;45.420;10.952;2022-07-05T00:52:25;100517.94;;;23.16;71.66
23427;BME280;41148;45.420;10.952;2022-07-05T00:54:52;100520.72;;;22.82;73.20
23427;BME280;41148;45.420;10.952;2022-07-05T00:57:21;100513.81;;;22.78;73.47
23427;BME280;41148;45.420;10.952;2022-07-05T00:59:49;100518.09;;;23.03;71.97
23427;BME280;41148;45.420;10.952;2022-07-05T01:02:16;100508.66;;;23.30;70.45
23427;BME280;41148;45.420;10.952;2022-07-05T01:04:46;100524.00;;;23.52;69.68
23427;BME280;41148;45.420;10.952;2022-07-05T01:07:14;100518.97;;;23.47;69.82
23427;BME280;41148;45.420;10.952;2022-07-05T01:09:41;100516.25;;;23.47;69.58
23427;BME280;41148;45.420;10.952;2022-07-05T01:12:09;100513.69;;;23.34;70.34
23427;BME280;41148;45.420;10.952;2022-07-05T01:14:37;100504.59;;;23.24;70.89
23427;BME280;41148;45.420;10.952;2022-07-05T01:17:04;100502.41;;;23.18;71.11
23427;BME280;41148;45.420;10.952;2022-07-05T01:19:32;100506.13;;;23.17;71.29
23427;BME280;41148;45.420;10.952;2022-07-05T01:22:01;100513.91;;;23.10;71.79
23427;BME280;41148;45.420;10.952;2022-07-05T01:24:30;100515.66;;;22.67;74.42
23427;BME280;41148;45.420;10.952;2022-07-05T01:26:58;100520.09;;;22.79;74.02
23427;BME280;41148;45.420;10.952;2022-07-05T01:29:26;100515.56;;;22.91;73.17
23427;BME280;41148;45.420;10.952;2022-07-05T01:31:53;100516.78;;;22.98;73.00
23427;BME280;41148;45.420;10.952;2022-07-05T01:34:21;100518.09;;;23.03;72.62
23427;BME280;41148;45.420;10.952;2022-07-05T01:36:48;100514.91;;;23.09;72.22
23427;BME280;41148;45.420;10.952;2022-07-05T01:39:15;100508.59;;;23.09;72.13
23427;BME280;41148;45.420;10.952;2022-07-05T01:41:43;100516.34;;;23.13;71.66
23427;BME280;41148;45.420;10.952;2022-07-05T01:44:10;100506.78;;;22.98;72.51
23427;BME280;41148;45.420;10.952;2022-07-05T01:46:38;100506.03;;;22.74;74.16
23427;BME280;41148;45.420;10.952;2022-07-05T01:49:09;100518.63;;;22.86;73.50
23427;BME280;41148;45.420;10.952;2022-07-05T01:51:48;100514.91;;;22.87;73.41
23427;BME280;41148;45.420;10.952;2022-07-05T01:54:16;100525.56;;;22.90;72.87
23427;BME280;41148;45.420;10.952;2022-07-05T01:56:45;100519.97;;;22.80;73.53
23427;BME280;41148;45.420;10.952;2022-07-05T01:59:12;100524.31;;;22.49;74.98
23427;BME280;41148;45.420;10.952;2022-07-05T02:01:40;100530.63;;;22.50;75.07
23427;BME280;41148;45.420;10.952;2022-07-05T02:04:08;100528.03;;;22.60;74.28
23427;BME280;41148;45.420;10.952;2022-07-05T02:06:36;100518.13;;;22.70;74.06
23427;BME280;41148;45.420;10.952;2022-07-05T02:09:06;100519.13;;;22.69;73.93
23427;BME280;41148;45.420;10.952;2022-07-05T02:11:34;100530.13;;;22.78;74.02
23427;BME280;41148;45.420;10.952;2022-07-05T02:14:03;100540.97;;;22.56;74.96
23427;BME280;41148;45.420;10.952;2022-07-05T02:16:34;100541.22;;;22.64;74.67
23427;BME280;41148;45.420;10.952;2022-07-05T02:19:01;100539.34;;;22.76;74.39
23427;BME280;41148;45.420;10.952;2022-07-05T02:21:32;100536.78;;;22.63;75.00
23427;BME280;41148;45.420;10.952;2022-07-05T02:24:02;100533.44;;;22.71;74.44
23427;BME280;41148;45.420;10.952;2022-07-05T02:26:34;100534.69;;;22.78;74.30
23427;BME280;41148;45.420;10.952;2022-07-05T02:29:03;100542.94;;;22.76;74.48
23427;BME280;41148;45.420;10.952;2022-07-05T02:31:32;100549.13;;;22.78;74.66
23427;BME280;41148;45.420;10.952;2022-07-05T02:33:59;100550.25;;;22.98;73.57
23427;BME280;41148;45.420;10.952;2022-07-05T02:36:27;100557.16;;;23.02;72.95
23427;BME280;41148;45.420;10.952;2022-07-05T02:38:54;100563.56;;;22.79;73.68
23427;BME280;41148;45.420;10.952;2022-07-05T02:41:21;100552.22;;;22.85;73.22
23427;BME280;41148;45.420;10.952;2022-07-05T02:43:51;100549.16;;;22.90;72.58
23427;BME280;41148;45.420;10.952;2022-07-05T02:46:22;100554.28;;;22.81;73.01
23427;BME280;41148;45.420;10.952;2022-07-05T02:48:51;100556.28;;;22.79;73.07
23427;BME280;41148;45.420;10.952;2022-07-05T02:51:25;100555.03;;;22.83;72.35
23427;BME280;41148;45.420;10.952;2022-07-05T02:53:54;100551.72;;;22.69;72.74
23427;BME280;41148;45.420;10.952;2022-07-05T02:56:22;100560.47;;;22.83;71.46
23427;BME280;41148;45.420;10.952;2022-07-05T02:58:49;100565.91;;;22.83;71.03
23427;BME280;41148;45.420;10.952;2022-07-05T03:01:18;100565.16;;;22.81;70.12
23427;BME280;41148;45.420;10.952;2022-07-05T03:03:46;100567.28;;;22.89;69.79
23427;BME280;41148;45.420;10.952;2022-07-05T03:06:15;100570.63;;;22.93;70.27
23427;BME280;41148;45.420;10.952;2022-07-05T03:08:42;100569.88;;;22.91;70.68
23427;BME280;41148;45.420;10.952;2022-07-05T03:11:11;100572.97;;;22.97;69.83
23427;BME280;41148;45.420;10.952;2022-07-05T03:13:39;100576.16;;;23.02;69.66
23427;BME280;41148;45.420;10.952;2022-07-05T03:16:06;100581.22;;;22.84;70.98
23427;BME280;41148;45.420;10.952;2022-07-05T03:18:34;100586.16;;;22.68;71.34
23427;BME280;41148;45.420;10.952;2022-07-05T03:21:05;100586.63;;;22.51;72.28
23427;BME280;41148;45.420;10.952;2022-07-05T03:23:34;100580.25;;;22.85;70.83
23427;BME280;41148;45.420;10.952;2022-07-05T03:26:01;100584.53;;;22.77;70.37
23427;BME280;41148;45.420;10.952;2022-07-05T03:28:30;100581.22;;;22.96;69.59
23427;BME280;41148;45.420;10.952;2022-07-05T03:30:59;100578.16;;;23.00;69.01
23427;BME280;41148;45.420;10.952;2022-07-05T03:33:27;100569.50;;;22.95;69.16
23427;BME280;41148;45.420;10.952;2022-07-05T03:35:58;100569.25;;;22.98;67.82
23427;BME280;41148;45.420;10.952;2022-07-05T03:38:26;100567.53;;;22.97;66.79
23427;BME280;41148;45.420;10.952;2022-07-05T03:40:53;100576.13;;;23.36;65.31
23427;BME280;41148;45.420;10.952;2022-07-05T03:43:24;100580.25;;;23.62;63.83
23427;BME280;41148;45.420;10.952;2022-07-05T03:45:51;100578.44;;;23.84;63.14
23427;BME280;41148;45.420;10.952;2022-07-05T03:48:18;100580.97;;;23.76;63.99
23427;BME280;41148;45.420;10.952;2022-07-05T03:51:06;100570.22;;;23.74;64.48
23427;BME280;41148;45.420;10.952;2022-07-05T03:53:35;100561.44;;;23.70;65.49
23427;BME280;41148;45.420;10.952;2022-07-05T03:56:03;100552.19;;;23.62;68.11
23427;BME280;41148;45.420;10.952;2022-07-05T03:58:30;100547.41;;;23.43;69.81
23427;BME280;41148;45.420;10.952;2022-07-05T04:04:00;100529.38;;;23.42;70.69
23427;BME280;41148;45.420;10.952;2022-07-05T04:06:30;100518.94;;;23.26;71.01
23427;BME280;41148;45.420;10.952;2022-07-05T04:08:59;100525.81;;;23.30;70.74
23427;BME280;41148;45.420;10.952;2022-07-05T04:11:27;100529.38;;;22.99;71.55
23427;BME280;41148;45.420;10.952;2022-07-05T04:13:54;100541.44;;;23.17;70.88
23427;BME280;41148;45.420;10.952;2022-07-05T04:16:22;100528.19;;;23.24;69.99
23427;BME280;41148;45.420;10.952;2022-07-05T04:18:49;100481.25;;;23.22;69.74
23427;BME280;41148;45.420;10.952;2022-07-05T04:21:16;100425.56;;;23.16;69.78
23427;BME280;41148;45.420;10.952;2022-07-05T04:23:44;100358.31;;;23.08;70.34
23427;BME280;41148;45.420;10.952;2022-07-05T04:26:11;100324.63;;;23.00;70.05
23427;BME280;41148;45.420;10.952;2022-07-05T04:28:44;100381.72;;;22.89;69.14
23427;BME280;41148;45.420;10.952;2022-07-05T04:31:17;100430.97;;;22.84;68.41
23427;BME280;41148;45.420;10.952;2022-07-05T04:33:47;100480.59;;;22.86;67.78
23427;BME280;41148;45.420;10.952;2022-07-05T04:36:19;100514.78;;;23.00;67.17
23427;BME280;41148;45.420;10.952;2022-07-05T04:38:47;100518.41;;;22.89;67.63
23427;BME280;41148;45.420;10.952;2022-07-05T04:41:15;100511.66;;;23.16;67.38
23427;BME280;41148;45.420;10.952;2022-07-05T04:43:43;100527.22;;;23.13;65.55
23427;BME280;41148;45.420;10.952;2022-07-05T04:46:12;100527.47;;;23.22;64.41
23427;BME280;41148;45.420;10.952;2022-07-05T04:48:41;100543.25;;;23.28;63.65
23427;BME280;41148;45.420;10.952;2022-07-05T04:51:09;100552.50;;;23.25;64.38
23427;BME280;41148;45.420;10.952;2022-07-05T04:53:37;100535.72;;;23.31;64.84
23427;BME280;41148;45.420;10.952;2022-07-05T04:56:04;100540.28;;;23.31;67.51
23427;BME280;41148;45.420;10.952;2022-07-05T04:58:32;100546.78;;;23.07;70.23
23427;BME280;41148;45.420;10.952;2022-07-05T05:01:00;100542.31;;;22.95;71.48
23427;BME280;41148;45.420;10.952;2022-07-05T05:03:28;100549.63;;;22.95;72.04
23427;BME280;41148;45.420;10.952;2022-07-05T05:05:55;100544.06;;;22.85;73.19
23427;BME280;41148;45.420;10.952;2022-07-05T05:08:22;100542.94;;;22.76;74.52
23427;BME280;41148;45.420;10.952;2022-07-05T05:10:49;100546.03;;;22.83;74.24
23427;BME280;41148;45.420;10.952;2022-07-05T05:13:17;100551.34;;;22.62;74.81
23427;BME280;41148;45.420;10.952;2022-07-05T05:15:44;100548.63;;;22.84;74.28
23427;BME280;41148;45.420;10.952;2022-07-05T05:18:11;100567.38;;;22.76;74.56
23427;BME280;41148;45.420;10.952;2022-07-05T05:20:38;100570.34;;;22.73;75.52
23427;BME280;41148;45.420;10.952;2022-07-05T05:23:07;100578.22;;;22.65;76.48
23427;BME280;41148;45.420;10.952;2022-07-05T05:25:34;100578.50;;;22.84;75.54
23427;BME280;41148;45.420;10.952;2022-07-05T05:28:02;100583.31;;;22.59;76.43
23427;BME280;41148;45.420;10.952;2022-07-05T05:30:30;100588.84;;;22.46;76.28
23427;BME280;41148;45.420;10.952;2022-07-05T05:32:58;100591.47;;;22.59;75.86
23427;BME280;41148;45.420;10.952;2022-07-05T05:35:25;100598.09;;;22.77;75.06
23427;BME280;41148;45.420;10.952;2022-07-05T05:37:53;100592.47;;;23.02;74.20
23427;BME280;41148;45.420;10.952;2022-07-05T05:40:21;100599.72;;;23.24;72.12
23427;BME280;41148;45.420;10.952;2022-07-05T05:42:49;100610.66;;;23.56;70.71
23427;BME280;41148;45.420;10.952;2022-07-05T05:45:17;100614.75;;;23.94;68.62
23427;BME280;41148;45.420;10.952;2022-07-05T05:47:45;100620.88;;;24.07;68.22
23427;BME280;41148;45.420;10.952;2022-07-05T05:50:13;100620.03;;;24.48;66.57
23427;BME280;41148;45.420;10.952;2022-07-05T05:52:40;100628.06;;;24.50;65.95
23427;BME280;41148;45.420;10.952;2022-07-05T05:55:07;100628.75;;;24.10;66.94
23427;BME280;41148;45.420;10.952;2022-07-05T05:57:35;100622.41;;;24.32;66.58
23427;BME280;41148;45.420;10.952;2022-07-05T06:00:03;100623.47;;;24.30;65.06
23427;BME280;41148;45.420;10.952;2022-07-05T06:02:37;100620.09;;;24.58;64.59
23427;BME280;41148;45.420;10.952;2022-07-05T06:05:05;100624.75;;;24.25;64.56
23427;BME280;41148;45.420;10.952;2022-07-05T06:10:30;100635.63;;;24.25;63.78
23427;BME280;41148;45.420;10.952;2022-07-05T06:12:59;100647.56;;;24.13;64.02
23427;BME280;41148;45.420;10.952;2022-07-05T06:15:26;100640.38;;;24.65;63.14
23427;BME280;41148;45.420;10.952;2022-07-05T06:17:54;100639.38;;;25.27;60.57
23427;BME280;41148;45.420;10.952;2022-07-05T06:20:22;100643.03;;;24.55;60.12
23427;BME280;41148;45.420;10.952;2022-07-05T06:22:51;100638.38;;;24.46;61.32
23427;BME280;41148;45.420;10.952;2022-07-05T06:25:18;100639.69;;;24.73;61.19
23427;BME280;41148;45.420;10.952;2022-07-05T06:27:52;100640.88;;;24.80;59.93
23427;BME280;41148;45.420;10.952;2022-07-05T06:30:21;100646.34;;;24.90;59.44
23427;BME280;41148;45.420;10.952;2022-07-05T06:32:48;100638.31;;;24.88;58.92
23427;BME280;41148;45.420;10.952;2022-07-05T06:35:16;100632.19;;;24.96;59.18
23427;BME280;41148;45.420;10.952;2022-07-05T06:37:45;100632.03;;;25.58;56.61
23427;BME280;41148;45.420;10.952;2022-07-05T06:40:14;100633.81;;;25.79;56.42
23427;BME280;41148;45.420;10.952;2022-07-05T06:42:44;100632.66;;;26.10;55.34
23427;BME280;41148;45.420;10.952;2022-07-05T06:45:14;100633.97;;;25.87;56.20
23427;BME280;41148;45.420;10.952;2022-07-05T06:47:41;100637.41;;;26.08;55.38
23427;BME280;41148;45.420;10.952;2022-07-05T06:50:09;100637.81;;;26.13;54.96
23427;BME280;41148;45.420;10.952;2022-07-05T06:52:37;100634.06;;;26.14;55.32
23427;BME280;41148;45.420;10.952;2022-07-05T06:55:06;100632.50;;;26.21;54.49
23427;BME280;41148;45.420;10.952;2022-07-05T06:57:34;100637.81;;;26.23;53.78
23427;BME280;41148;45.420;10.952;2022-07-05T07:00:01;100635.25;;;26.02;53.55
23427;BME280;41148;45.420;10.952;2022-07-05T07:02:49;100636.69;;;26.06;53.78
23427;BME280;41148;45.420;10.952;2022-07-05T07:05:17;100637.41;;;26.08;53.70
23427;BME280;41148;45.420;10.952;2022-07-05T07:07:50;100636.69;;;26.16;53.80
23427;BME280;41148;45.420;10.952;2022-07-05T07:10:36;100643.13;;;25.86;54.51
23427;BME280;41148;45.420;10.952;2022-07-05T07:13:04;100644.13;;;25.94;55.10
23427;BME280;41148;45.420;10.952;2022-07-05T07:15:31;100645.00;;;26.05;55.95
23427;BME280;41148;45.420;10.952;2022-07-05T07:18:00;100642.88;;;26.08;56.23
23427;BME280;41148;45.420;10.952;2022-07-05T07:20:28;100635.38;;;26.10;55.99
23427;BME280;41148;45.420;10.952;2022-07-05T07:22:55;100643.72;;;25.99;56.97
23427;BME280;41148;45.420;10.952;2022-07-05T07:25:22;100640.53;;;26.04;57.18
23427;BME280;41148;45.420;10.952;2022-07-05T07:27:51;100647.88;;;26.03;57.41
23427;BME280;41148;45.420;10.952;2022-07-05T07:30:20;100641.69;;;26.20;57.62
23427;BME280;41148;45.420;10.952;2022-07-05T07:32:47;100639.53;;;26.24;56.59
23427;BME280;41148;45.420;10.952;2022-07-05T07:35:15;100638.41;;;26.27;55.53
23427;BME280;41148;45.420;10.952;2022-07-05T07:37:42;100644.88;;;26.16;56.37
23427;BME280;41148;45.420;10.952;2022-07-05T07:40:09;100638.09;;;26.20;56.55
23427;BME280;41148;45.420;10.952;2022-07-05T07:42:37;100637.94;;;26.31;56.60
23427;BME280;41148;45.420;10.952;2022-07-05T07:45:04;100637.53;;;26.55;55.56
23427;BME280;41148;45.420;10.952;2022-07-05T07:47:32;100644.44;;;26.40;55.97
23427;BME280;41148;45.420;10.952;2022-07-05T07:50:00;100643.72;;;26.28;55.70
23427;BME280;41148;45.420;10.952;2022-07-05T07:52:28;100636.97;;;26.42;55.08
23427;BME280;41148;45.420;10.952;2022-07-05T07:54:58;100633.19;;;26.52;55.34
23427;BME280;41148;45.420;10.952;2022-07-05T07:57:26;100633.78;;;26.56;54.75
23427;BME280;41148;45.420;10.952;2022-07-05T07:59:53;100626.41;;;26.76;54.83
23427;BME280;41148;45.420;10.952;2022-07-05T08:02:21;100627.25;;;26.76;54.70
23427;BME280;41148;45.420;10.952;2022-07-05T08:04:50;100623.69;;;26.66;54.86
23427;BME280;41148;45.420;10.952;2022-07-05T08:07:17;100623.91;;;26.82;54.44
23427;BME280;41148;45.420;10.952;2022-07-05T08:09:45;100620.69;;;27.06;51.21
23427;BME280;41148;45.420;10.952;2022-07-05T08:12:13;100619.25;;;27.12;50.30
23427;BME280;41148;45.420;10.952;2022-07-05T08:14:40;100619.78;;;27.16;50.21
23427;BME280;41148;45.420;10.952;2022-07-05T08:17:09;100613.25;;;27.26;49.70
23427;BME280;41148;45.420;10.952;2022-07-05T08:19:36;100625.75;;;27.29;49.49
23427;BME280;41148;45.420;10.952;2022-07-05T08:22:22;100621.66;;;27.43;49.50
23427;BME280;41148;45.420;10.952;2022-07-05T08:24:50;100618.06;;;27.60;48.66
23427;BME280;41148;45.420;10.952;2022-07-05T08:27:17;100611.91;;;27.58;47.45
23427;BME280;41148;45.420;10.952;2022-07-05T08:29:45;100613.34;;;27.62;47.84
23427;BME280;41148;45.420;10.952;2022-07-05T08:32:12;100611.19;;;27.83;47.16
23427;BME280;41148;45.420;10.952;2022-07-05T08:34:40;100619.00;;;27.78;47.23
23427;BME280;41148;45.420;10.952;2022-07-05T08:37:08;100620.88;;;27.95;46.80
23427;BME280;41148;45.420;10.952;2022-07-05T08:39:41;100619.06;;;28.22;46.60
23427;BME280;41148;45.420;10.952;2022-07-05T08:42:09;100622.84;;;28.39;45.26
23427;BME280;41148;45.420;10.952;2022-07-05T08:44:39;100622.44;;;28.34;44.62
23427;BME280;41148;45.420;10.952;2022-07-05T08:47:10;100621.22;;;28.54;44.81
23427;BME280;41148;45.420;10.952;2022-07-05T08:49:39;100610.72;;;28.75;45.11
23427;BME280;41148;45.420;10.952;2022-07-05T08:52:09;100618.00;;;28.59;44.91
23427;BME280;41148;45.420;10.952;2022-07-05T08:54:37;100614.19;;;28.51;46.14
23427;BME280;41148;45.420;10.952;2022-07-05T08:57:05;100618.31;;;28.82;45.79
23427;BME280;41148;45.420;10.952;2022-07-05T08:59:41;100612.63;;;28.75;45.60
23427;BME280;41148;45.420;10.952;2022-07-05T09:02:12;100614.69;;;28.99;45.94
23427;BME280;41148;45.420;10.952;2022-07-05T09:04:43;100611.53;;;29.28;44.58
23427;BME280;41148;45.420;10.952;2022-07-05T09:07:14;100604.22;;;29.36;44.12
23427;BME280;41148;45.420;10.952;2022-07-05T09:09:43;100606.56;;;29.66;43.30
23427;BME280;41148;45.420;10.952;2022-07-05T09:12:13;100603.34;;;29.36;43.57
23427;BME280;41148;45.420;10.952;2022-07-05T09:14:56;100604.47;;;29.59;43.36
23427;BME280;41148;45.420;10.952;2022-07-05T09:17:24;100601.06;;;29.82;43.16
23427;BME280;41148;45.420;10.952;2022-07-05T09:20:07;100600.88;;;29.67;42.96
23427;BME280;41148;45.420;10.952;2022-07-05T09:22:44;100607.97;;;29.94;42.45
23427;BME280;41148;45.420;10.952;2022-07-05T09:25:21;100613.28;;;30.04;41.62
23427;BME280;41148;45.420;10.952;2022-07-05T09:27:53;100611.88;;;29.91;41.38
23427;BME280;41148;45.420;10.952;2022-07-05T09:30:25;100600.38;;;29.80;42.09
23427;BME280;41148;45.420;10.952;2022-07-05T09:33:27;100597.34;;;30.15;42.10
23427;BME280;41148;45.420;10.952;2022-07-05T09:35:56;100603.69;;;30.48;41.75
23427;BME280;41148;45.420;10.952;2022-07-05T09:38:28;100590.63;;;30.67;41.44
23427;BME280;41148;45.420;10.952;2022-07-05T09:40:58;100594.38;;;30.58;42.95
23427;BME280;41148;45.420;10.952;2022-07-05T09:43:28;100599.84;;;30.90;42.83
23427;BME280;41148;45.420;10.952;2022-07-05T09:45:59;100598.09;;;30.97;42.18
23427;BME280;41148;45.420;10.952;2022-07-05T09:48:28;100594.56;;;30.81;41.48
23427;BME280;41148;45.420;10.952;2022-07-05T09:51:07;100599.47;;;31.01;41.30
23427;BME280;41148;45.420;10.952;2022-07-05T09:53:56;100598.06;;;31.05;41.43
23427;BME280;41148;45.420;10.952;2022-07-05T09:56:28;100593.81;;;30.95;41.41
23427;BME280;41148;45.420;10.952;2022-07-05T09:59:17;100594.19;;;30.84;42.02
23427;BME280;41148;45.420;10.952;2022-07-05T10:01:46;100599.50;;;30.85;41.23
23427;BME280;41148;45.420;10.952;2022-07-05T10:04:13;100587.84;;;30.75;41.34
23427;BME280;41148;45.420;10.952;2022-07-05T10:06:41;100591.81;;;30.81;41.17
23427;BME280;41148;45.420;10.952;2022-07-05T10:09:10;100584.34;;;30.97;40.68
23427;BME280;41148;45.420;10.952;2022-07-05T10:11:39;100589.06;;;30.81;40.08
23427;BME280;41148;45.420;10.952;2022-07-05T10:14:09;100581.56;;;31.05;39.96
23427;BME280;41148;45.420;10.952;2022-07-05T10:16:37;100589.34;;;30.94;40.88
23427;BME280;41148;45.420;10.952;2022-07-05T10:19:04;100580.28;;;30.77;40.49
23427;BME280;41148;45.420;10.952;2022-07-05T10:21:35;100584.03;;;30.84;40.06
23427;BME280;41148;45.420;10.952;2022-07-05T10:24:23;100591.28;;;30.77;39.95
23427;BME280;41148;45.420;10.952;2022-07-05T10:26:50;100582.81;;;30.87;40.46
23427;BME280;41148;45.420;10.952;2022-07-05T10:29:18;100587.34;;;30.80;40.51
23427;BME280;41148;45.420;10.952;2022-07-05T10:31:46;100581.69;;;30.48;40.19
23427;BME280;41148;45.420;10.952;2022-07-05T10:34:14;100572.56;;;30.56;40.02
23427;BME280;41148;45.420;10.952;2022-07-05T10:37:01;100577.88;;;30.74;40.12
23427;BME280;41148;45.420;10.952;2022-07-05T10:39:29;100575.69;;;30.69;39.31
23427;BME280;41148;45.420;10.952;2022-07-05T10:41:56;100571.63;;;30.96;39.20
23427;BME280;41148;45.420;10.952;2022-07-05T10:44:25;100576.72;;;31.08;39.42
23427;BME280;41148;45.420;10.952;2022-07-05T10:46:53;100569.66;;;31.21;38.78
23427;BME280;41148;45.420;10.952;2022-07-05T10:49:33;100569.03;;;31.03;38.44
23427;BME280;41148;45.420;10.952;2022-07-05T10:52:00;100572.63;;;31.03;38.52
23427;BME280;41148;45.420;10.952;2022-07-05T10:54:28;100574.72;;;30.93;37.89
23427;BME280;41148;45.420;10.952;2022-07-05T11:02:26;100569.41;;;30.92;38.00
23427;BME280;41148;45.420;10.952;2022-07-05T11:04:55;100572.47;;;30.97;37.36
23427;BME280;41148;45.420;10.952;2022-07-05T11:10:09;100558.78;;;30.89;38.00
23427;BME280;41148;45.420;10.952;2022-07-05T11:12:39;100558.88;;;31.03;37.52
23427;BME280;41148;45.420;10.952;2022-07-05T11:15:07;100555.63;;;31.00;37.31
23427;BME280;41148;45.420;10.952;2022-07-05T11:17:36;100549.53;;;31.13;37.32
23427;BME280;41148;45.420;10.952;2022-07-05T11:20:33;100553.78;;;31.31;37.40
23427;BME280;41148;45.420;10.952;2022-07-05T11:25:29;100552.69;;;31.41;36.54
23427;BME280;41148;45.420;10.952;2022-07-05T11:28:17;100547.28;;;31.16;36.59
23427;BME280;41148;45.420;10.952;2022-07-05T11:30:46;100548.84;;;31.27;36.81
23427;BME280;41148;45.420;10.952;2022-07-05T11:36:01;100543.72;;;31.47;36.55
23427;BME280;41148;45.420;10.952;2022-07-05T11:38:29;100537.16;;;31.48;36.68
23427;BME280;41148;45.420;10.952;2022-07-05T11:41:17;100538.50;;;31.52;37.04
23427;BME280;41148;45.420;10.952;2022-07-05T11:43:44;100536.22;;;31.55;36.15
23427;BME280;41148;45.420;10.952;2022-07-05T11:46:21;100530.06;;;31.53;36.45
23427;BME280;41148;45.420;10.952;2022-07-05T11:49:10;100527.97;;;31.55;35.89
23427;BME280;41148;45.420;10.952;2022-07-05T11:51:37;100523.22;;;31.49;36.00
23427;BME280;41148;45.420;10.952;2022-07-05T11:54:07;100530.63;;;31.49;36.67
23427;BME280;41148;45.420;10.952;2022-07-05T11:56:42;100531.97;;;31.53;36.20
23427;BME280;41148;45.420;10.952;2022-07-05T11:59:16;100526.44;;;31.53;35.67
23427;BME280;41148;45.420;10.952;2022-07-05T12:01:46;100526.81;;;31.50;35.24
23427;BME280;41148;45.420;10.952;2022-07-05T12:04:49;100526.97;;;31.56;35.51
23427;BME280;41148;45.420;10.952;2022-07-05T12:07:27;100517.66;;;31.57;35.53
23427;BME280;41148;45.420;10.952;2022-07-05T12:09:54;100521.63;;;31.55;35.25
23427;BME280;41148;45.420;10.952;2022-07-05T12:12:40;100525.53;;;31.38;34.46
23427;BME280;41148;45.420;10.952;2022-07-05T12:15:18;100516.91;;;31.41;35.05
23427;BME280;41148;45.420;10.952;2022-07-05T12:17:47;100521.00;;;31.45;34.95
23427;BME280;41148;45.420;10.952;2022-07-05T12:20:20;100522.31;;;31.57;35.65
23427;BME280;41148;45.420;10.952;2022-07-05T12:22:47;100517.41;;;31.67;36.61
23427;BME280;41148;45.420;10.952;2022-07-05T12:25:18;100516.63;;;31.58;36.01
23427;BME280;41148;45.420;10.952;2022-07-05T12:27:46;100515.50;;;31.68;36.52
23427;BME280;41148;45.420;10.952;2022-07-05T12:30:14;100520.16;;;31.67;36.15
23427;BME280;41148;45.420;10.952;2022-07-05T12:33:01;100512.63;;;31.61;35.79
23427;BME280;41148;45.420;10.952;2022-07-05T12:35:31;100511.78;;;31.60;36.24
23427;BME280;41148;45.420;10.952;2022-07-05T12:38:02;100509.41;;;31.57;36.31
23427;BME280;41148;45.420;10.952;2022-07-05T12:40:29;100510.59;;;31.55;36.27
23427;BME280;41148;45.420;10.952;2022-07-05T12:43:02;100509.22;;;31.59;36.28
23427;BME280;41148;45.420;10.952;2022-07-05T12:45:29;100507.97;;;31.61;36.32
23427;BME280;41148;45.420;10.952;2022-07-05T12:47:57;100504.94;;;31.56;35.82
23427;BME280;41148;45.420;10.952;2022-07-05T12:50:25;100502.47;;;31.61;36.07
23427;BME280;41148;45.420;10.952;2022-07-05T12:55:35;100500.69;;;31.69;35.67
23427;BME280;41148;45.420;10.952;2022-07-05T12:58:21;100496.34;;;31.74;35.68
23427;BME280;41148;45.420;10.952;2022-07-05T13:00:48;100495.63;;;31.80;36.36
23427;BME280;41148;45.420;10.952;2022-07-05T13:03:16;100499.72;;;31.84;36.54
23427;BME280;41148;45.420;10.952;2022-07-05T13:05:43;100501.84;;;31.74;37.42
23427;BME280;41148;45.420;10.952;2022-07-05T13:08:26;100507.34;;;31.74;37.35
23427;BME280;41148;45.420;10.952;2022-07-05T13:10:54;100516.00;;;31.71;37.64
23427;BME280;41148;45.420;10.952;2022-07-05T13:13:21;100519.31;;;31.67;38.24
23427;BME280;41148;45.420;10.952;2022-07-05T13:15:48;100523.28;;;31.64;37.90